Аэропорт: Витязево. Анапа

ICAO: URKA

METAR:
2018/09/23 11:00
URKA 231100Z 24007MPS 9999 SCT018 23/20 Q1016 R22/010070 TEMPO 2000 TSRA BKN005 BKN020CB RMK QFE757/1010
METAR:
2018/09/23 09:24
TAF TAF URKA 230755Z 2309/2409 21007G13MPS 9999 SCT020CB 
      TEMPO 2312/2321 VRB09G15MPS 3100 -TSRA SCT011 BKN020CB